createdAt,value
2019-05-17T00:00:43.795Z,17.10
2019-05-17T00:03:14.241Z,17.30
2019-05-17T00:05:46.529Z,16.53
2019-05-17T00:08:30.835Z,17.47
2019-05-17T00:10:48.625Z,19.37
2019-05-17T00:13:18.878Z,16.53
2019-05-17T00:15:49.201Z,16.47
2019-05-17T00:18:19.538Z,17.90
2019-05-17T00:20:50.010Z,18.60
2019-05-17T00:23:20.565Z,16.93
2019-05-17T00:25:50.907Z,16.63
2019-05-17T00:28:21.270Z,18.93
2019-05-17T00:30:51.634Z,19.47
2019-05-17T00:33:21.942Z,18.27
2019-05-17T00:35:52.360Z,19.37
2019-05-17T00:38:22.821Z,19.60
2019-05-17T00:40:53.135Z,18.57
2019-05-17T00:43:23.474Z,16.63
2019-05-17T00:45:53.983Z,21.20
2019-05-17T00:48:26.342Z,18.83
2019-05-17T00:51:01.632Z,17.17
2019-05-17T00:53:28.241Z,16.57
2019-05-17T00:55:58.619Z,19.00
2019-05-17T00:58:28.929Z,22.57
2019-05-17T01:00:59.302Z,18.07
2019-05-17T01:03:29.652Z,19.60
2019-05-17T01:05:59.965Z,20.37
2019-05-17T01:08:30.289Z,19.87
2019-05-17T01:11:00.675Z,18.10
2019-05-17T01:13:30.989Z,18.83
2019-05-17T01:16:01.297Z,20.83
2019-05-17T01:18:31.609Z,19.27
2019-05-17T01:21:02.050Z,19.67
2019-05-17T01:23:33.711Z,20.10
2019-05-17T01:26:07.526Z,22.13
2019-05-17T01:28:38.116Z,19.07
2019-05-17T01:31:08.402Z,17.90
2019-05-17T01:33:38.817Z,20.00
2019-05-17T01:36:09.206Z,16.07
2019-05-17T01:38:39.570Z,19.27
2019-05-17T01:41:09.986Z,17.70
2019-05-17T01:43:40.734Z,18.40
2019-05-17T01:46:11.069Z,16.63
2019-05-17T01:48:41.389Z,18.00
2019-05-17T01:51:11.802Z,20.60
2019-05-17T01:53:42.118Z,17.33
2019-05-17T01:56:12.466Z,16.57
2019-05-17T01:58:42.837Z,21.43
2019-05-17T02:01:13.211Z,17.50
2019-05-17T02:03:43.514Z,17.80
2019-05-17T02:06:13.836Z,17.47
2019-05-17T02:08:47.346Z,16.67
2019-05-17T02:11:18.389Z,17.60
2019-05-17T02:13:48.382Z,18.90
2019-05-17T02:16:18.722Z,17.40
2019-05-17T02:18:49.045Z,16.57
2019-05-17T02:21:19.390Z,16.87
2019-05-17T02:23:49.728Z,17.67
2019-05-17T02:26:20.066Z,14.67
2019-05-17T02:28:52.068Z,15.67
2019-05-17T02:31:24.736Z,15.20
2019-05-17T02:33:54.955Z,14.67
2019-05-17T02:36:25.378Z,14.93
2019-05-17T02:38:55.704Z,15.30
2019-05-17T02:41:26.023Z,14.00
2019-05-17T02:43:56.361Z,15.03
2019-05-17T02:46:26.855Z,17.50
2019-05-17T02:48:57.310Z,15.60
2019-05-17T02:51:27.648Z,15.33
2019-05-17T02:53:58.054Z,15.47
2019-05-17T02:56:28.410Z,12.77
2019-05-17T02:58:58.738Z,12.93
2019-05-17T03:01:29.108Z,17.10
2019-05-17T03:03:59.421Z,14.23
2019-05-17T03:06:32.583Z,13.43
2019-05-17T03:09:03.331Z,13.87
2019-05-17T03:11:33.909Z,14.40
2019-05-17T03:14:04.323Z,14.67
2019-05-17T03:16:34.717Z,13.33
2019-05-17T03:19:05.045Z,15.57
2019-05-17T03:21:35.369Z,13.17
2019-05-17T03:24:05.904Z,13.57
2019-05-17T03:26:36.251Z,14.23
2019-05-17T03:29:06.155Z,12.27
2019-05-17T03:31:44.650Z,14.33
2019-05-17T03:34:15.762Z,14.47
2019-05-17T03:36:46.249Z,14.03
2019-05-17T03:39:13.287Z,13.97
2019-05-17T03:41:43.654Z,12.30
2019-05-17T03:44:14.003Z,14.80
2019-05-17T03:46:44.456Z,13.57
2019-05-17T03:49:14.907Z,20.00
2019-05-17T03:51:45.283Z,15.83
2019-05-17T03:54:15.598Z,15.33
2019-05-17T03:56:45.958Z,12.97
2019-05-17T03:59:16.642Z,14.80
2019-05-17T04:01:47.021Z,13.80
2019-05-17T04:04:17.366Z,14.87
2019-05-17T04:06:47.744Z,16.60
2019-05-17T04:09:18.056Z,16.27
2019-05-17T04:11:48.401Z,15.20
2019-05-17T04:14:18.706Z,16.47
2019-05-17T04:16:49.054Z,12.67
2019-05-17T04:19:22.761Z,15.07
2019-05-17T04:21:53.690Z,13.80
2019-05-17T04:24:23.737Z,14.60
2019-05-17T04:26:54.158Z,14.27
2019-05-17T04:29:27.620Z,14.53
2019-05-17T04:31:58.662Z,13.60
2019-05-17T04:34:29.215Z,13.03
2019-05-17T04:36:59.641Z,12.87
2019-05-17T04:39:32.500Z,12.33
2019-05-17T04:42:04.094Z,13.87
2019-05-17T04:44:34.964Z,12.93
2019-05-17T04:47:05.914Z,13.63
2019-05-17T04:49:36.237Z,10.50
2019-05-17T04:52:06.215Z,14.60
2019-05-17T04:54:36.532Z,12.67
2019-05-17T04:57:07.176Z,14.80
2019-05-17T04:59:37.975Z,11.07
2019-05-17T05:02:08.397Z,13.27
2019-05-17T05:04:38.961Z,14.33
2019-05-17T05:07:09.786Z,10.93
2019-05-17T05:09:42.967Z,14.47
2019-05-17T05:12:12.759Z,14.03
2019-05-17T05:14:43.352Z,12.37
2019-05-17T05:17:13.810Z,13.53
2019-05-17T05:19:44.254Z,13.47
2019-05-17T05:22:17.585Z,17.17
2019-05-17T05:24:46.866Z,17.00
2019-05-17T05:27:17.209Z,17.63
2019-05-17T05:29:47.520Z,15.63
2019-05-17T05:32:17.982Z,15.67
2019-05-17T05:34:48.474Z,17.20
2019-05-17T05:37:20.879Z,18.80
2019-05-17T05:39:52.391Z,18.87
2019-05-17T05:42:22.886Z,18.40
2019-05-17T05:44:55.471Z,22.97
2019-05-17T05:47:25.177Z,24.43
2019-05-17T05:49:55.476Z,26.10
2019-05-17T05:52:25.970Z,23.87
2019-05-17T05:57:41.827Z,24.90
2019-05-17T06:00:12.848Z,26.17
2019-05-17T06:02:44.255Z,31.57
2019-05-17T06:05:17.250Z,31.83
2019-05-17T06:07:46.869Z,31.33
2019-05-17T06:10:17.334Z,26.03
2019-05-17T06:12:47.622Z,26.97
2019-05-17T06:15:18.384Z,24.90
2019-05-17T06:17:48.733Z,27.60
2019-05-17T06:20:22.433Z,24.87
2019-05-17T06:22:53.018Z,27.23
2019-05-17T06:25:23.635Z,28.27
2019-05-17T06:27:54.114Z,31.80
2019-05-17T06:30:24.638Z,31.20
2019-05-17T06:32:55.014Z,30.30
2019-05-17T06:35:25.489Z,31.63
2019-05-17T06:37:55.845Z,33.53
2019-05-17T06:40:26.250Z,31.30
2019-05-17T06:42:56.574Z,28.80
2019-05-17T06:45:26.954Z,34.37
2019-05-17T06:47:57.279Z,30.10
2019-05-17T06:50:27.793Z,29.03
2019-05-17T06:52:58.513Z,26.93
2019-05-17T06:55:28.835Z,26.53
2019-05-17T06:58:01.529Z,29.80
2019-05-17T07:00:31.223Z,29.70
2019-05-17T07:03:01.578Z,25.80
2019-05-17T07:05:33.985Z,29.70
2019-05-17T07:08:04.354Z,29.27
2019-05-17T07:10:34.658Z,25.93
2019-05-17T07:13:05.146Z,26.03
2019-05-17T07:15:46.897Z,27.07
2019-05-17T07:18:10.031Z,28.03
2019-05-17T07:20:41.509Z,27.30
2019-05-17T07:23:11.757Z,30.40
2019-05-17T07:25:42.261Z,30.17
2019-05-17T07:28:12.583Z,27.07
2019-05-17T07:30:42.914Z,24.57
2019-05-17T07:33:13.333Z,26.23
2019-05-17T07:35:43.637Z,25.47
2019-05-17T07:38:14.120Z,26.80
2019-05-17T07:40:45.627Z,23.70
2019-05-17T07:43:16.085Z,26.43
2019-05-17T07:45:46.536Z,27.40
2019-05-17T07:48:16.913Z,25.00
2019-05-17T07:50:47.258Z,25.03
2019-05-17T07:53:19.779Z,23.53
2019-05-17T07:55:50.536Z,24.33
2019-05-17T07:58:22.717Z,24.33
2019-05-17T08:00:54.994Z,24.80
2019-05-17T08:03:25.446Z,24.97
2019-05-17T08:05:59.917Z,22.53
2019-05-17T08:08:30.540Z,24.33
2019-05-17T08:11:00.539Z,23.67
2019-05-17T08:13:33.701Z,23.07
2019-05-17T08:16:03.213Z,23.23
2019-05-17T08:18:33.679Z,19.77
2019-05-17T08:21:04.204Z,17.87
2019-05-17T08:23:34.546Z,19.77
2019-05-17T08:26:04.957Z,20.60
2019-05-17T08:28:35.249Z,17.90
2019-05-17T08:31:05.654Z,19.40
2019-05-17T08:36:13.068Z,18.27
2019-05-17T08:38:45.031Z,16.97
2019-05-17T08:41:15.516Z,15.07
2019-05-17T08:43:47.125Z,18.03
2019-05-17T08:46:19.779Z,14.17
2019-05-17T08:48:49.570Z,16.47
2019-05-17T08:51:20.455Z,17.10
2019-05-17T08:53:50.769Z,15.87
2019-05-17T08:56:21.159Z,15.20
2019-05-17T08:58:51.553Z,15.07
2019-05-17T09:01:21.950Z,15.70
2019-05-17T09:03:52.345Z,15.07
2019-05-17T09:06:22.658Z,16.87
2019-05-17T09:09:43.661Z,16.23
2019-05-17T09:12:14.085Z,17.03
2019-05-17T09:14:44.403Z,16.90
2019-05-17T09:17:14.972Z,19.93
2019-05-17T09:19:45.289Z,17.97
2019-05-17T09:22:15.658Z,19.00
2019-05-17T09:24:45.960Z,19.53
2019-05-17T09:27:16.302Z,18.77
2019-05-17T09:29:46.737Z,19.13
2019-05-17T09:32:17.147Z,19.93
2019-05-17T09:34:49.642Z,20.63
2019-05-17T09:37:22.441Z,23.37
2019-05-17T09:39:52.666Z,18.47
2019-05-17T09:42:23.069Z,21.47
2019-05-17T09:44:53.533Z,20.47
2019-05-17T09:47:23.951Z,18.63
2019-05-17T09:49:54.270Z,19.47
2019-05-17T09:52:24.598Z,19.40
2019-05-17T09:54:55.257Z,18.47
2019-05-17T09:57:25.705Z,17.60
2019-05-17T09:59:56.097Z,14.70
2019-05-17T10:02:26.491Z,18.97
2019-05-17T10:04:56.850Z,18.27
2019-05-17T10:07:29.680Z,17.10
2019-05-17T10:09:59.703Z,16.53
2019-05-17T10:12:30.187Z,17.90
2019-05-17T10:16:53.742Z,17.97
2019-05-17T10:19:24.194Z,17.70
2019-05-17T10:21:54.479Z,16.57
2019-05-17T10:24:35.990Z,20.17
2019-05-17T10:26:56.753Z,17.40
2019-05-17T10:29:29.856Z,16.97
2019-05-17T10:31:59.888Z,18.20
2019-05-17T10:34:30.213Z,18.17
2019-05-17T10:37:00.764Z,17.70
2019-05-17T10:39:31.115Z,18.77
2019-05-17T10:42:01.534Z,17.83
2019-05-17T10:44:43.080Z,17.53
2019-05-17T10:47:04.341Z,16.93
2019-05-17T10:49:34.766Z,18.17
2019-05-17T10:54:20.607Z,19.73
2019-05-17T10:56:50.687Z,21.07
2019-05-17T10:59:21.027Z,16.40
2019-05-17T11:01:51.462Z,15.57
2019-05-17T11:04:21.839Z,16.63
2019-05-17T11:06:52.185Z,17.70
2019-05-17T11:09:22.542Z,18.37
2019-05-17T11:11:52.868Z,18.70
2019-05-17T11:14:23.265Z,15.83
2019-05-17T11:16:53.597Z,18.67
2019-05-17T11:19:23.984Z,15.70
2019-05-17T11:21:54.303Z,16.60
2019-05-17T11:24:24.634Z,14.80
2019-05-17T11:26:54.953Z,15.97
2019-05-17T11:29:25.344Z,36.13
2019-05-17T11:31:55.650Z,18.77
2019-05-17T11:34:26.015Z,15.13
2019-05-17T11:36:57.057Z,18.77
2019-05-17T11:39:28.592Z,32.10
2019-05-17T11:41:58.866Z,17.33
2019-05-17T11:44:29.251Z,17.67
2019-05-17T11:47:01.645Z,15.30
2019-05-17T11:49:31.661Z,14.53
2019-05-17T11:52:01.970Z,14.23
2019-05-17T11:54:32.368Z,13.77
2019-05-17T11:57:02.680Z,14.73
2019-05-17T11:59:33.179Z,15.67
2019-05-17T12:02:03.569Z,13.23
2019-05-17T12:04:35.011Z,12.83
2019-05-17T12:07:05.583Z,14.87
2019-05-17T12:09:37.729Z,12.20
2019-05-17T12:12:07.864Z,15.30
2019-05-17T12:14:38.554Z,13.57
2019-05-17T12:17:08.978Z,14.57
2019-05-17T12:19:40.009Z,14.67
2019-05-17T12:22:10.409Z,14.67
2019-05-17T12:24:40.865Z,18.13
2019-05-17T12:27:11.211Z,20.80
2019-05-17T12:29:41.593Z,15.63
2019-05-17T12:32:16.802Z,15.07
2019-05-17T12:34:44.084Z,13.70
2019-05-17T12:37:14.402Z,15.20
2019-05-17T12:39:44.737Z,16.03
2019-05-17T12:42:15.525Z,12.97
2019-05-17T12:44:47.527Z,15.27
2019-05-17T12:47:42.558Z,13.33
2019-05-17T12:50:13.776Z,15.63
2019-05-17T12:52:46.876Z,14.83
2019-05-17T12:55:22.636Z,13.77
2019-05-17T12:57:54.650Z,14.13
2019-05-17T13:00:27.052Z,13.90
2019-05-17T13:02:59.792Z,15.57
2019-05-17T13:05:31.433Z,14.43
2019-05-17T13:08:03.428Z,15.53
2019-05-17T13:10:36.947Z,12.13
2019-05-17T13:13:09.634Z,13.63
2019-05-17T13:15:49.257Z,11.77
2019-05-17T13:18:20.786Z,12.17
2019-05-17T13:20:52.865Z,15.50
2019-05-17T13:23:27.830Z,16.33
2019-05-17T13:26:05.646Z,12.40
2019-05-17T13:28:38.482Z,12.73
2019-05-17T13:31:09.839Z,13.33
2019-05-17T13:33:42.322Z,12.93
2019-05-17T13:36:15.144Z,16.90
2019-05-17T13:38:48.840Z,15.30
2019-05-17T13:41:20.893Z,13.40
2019-05-17T13:43:58.655Z,13.93
2019-05-17T13:46:33.615Z,15.00
2019-05-17T13:49:09.257Z,11.30
2019-05-17T13:51:42.156Z,12.60
2019-05-17T13:54:13.923Z,11.87
2019-05-17T13:56:45.950Z,10.53
2019-05-17T13:59:18.905Z,11.40
2019-05-17T14:01:50.930Z,12.07
2019-05-17T14:04:23.028Z,11.97
2019-05-17T14:06:55.096Z,14.10
2019-05-17T14:09:26.622Z,10.47
2019-05-17T14:11:58.466Z,13.90
2019-05-17T14:14:30.170Z,9.30
2019-05-17T14:17:01.790Z,9.20
2019-05-17T14:19:37.367Z,9.73
2019-05-17T14:22:09.692Z,10.23
2019-05-17T14:24:41.421Z,11.00
2019-05-17T14:27:13.297Z,12.43
2019-05-17T14:29:49.355Z,10.73
2019-05-17T14:32:20.823Z,10.30
2019-05-17T14:34:52.692Z,9.67
2019-05-17T14:37:25.607Z,8.77
2019-05-17T14:39:56.974Z,7.80
2019-05-17T14:42:28.683Z,8.20
2019-05-17T14:45:01.492Z,7.73
2019-05-17T14:47:32.839Z,6.57
2019-05-17T14:50:05.233Z,7.00
2019-05-17T14:52:36.937Z,7.00
2019-05-17T14:55:08.697Z,5.40
2019-05-17T14:57:42.916Z,7.97
2019-05-17T15:00:13.466Z,8.17
2019-05-17T15:02:46.863Z,5.93
2019-05-17T15:05:19.112Z,7.10
2019-05-17T15:07:51.197Z,6.43
2019-05-17T15:10:23.176Z,4.93
2019-05-17T15:12:56.616Z,6.30
2019-05-17T15:15:28.607Z,6.43
2019-05-17T15:18:01.319Z,5.77
2019-05-17T15:20:33.347Z,5.30
2019-05-17T15:23:04.962Z,4.57
2019-05-17T15:25:37.339Z,4.90
2019-05-17T15:28:09.816Z,5.57
2019-05-17T15:30:45.083Z,4.93
2019-05-17T15:33:17.264Z,6.20
2019-05-17T15:35:57.614Z,5.90
2019-05-17T15:38:29.598Z,5.17
2019-05-17T15:41:01.265Z,5.30
2019-05-17T15:43:33.856Z,5.20
2019-05-17T15:46:05.526Z,3.83
2019-05-17T15:48:37.125Z,6.93
2019-05-17T15:51:08.613Z,5.23
2019-05-17T15:53:42.404Z,5.63
2019-05-17T15:56:15.297Z,5.23
2019-05-17T15:58:47.492Z,4.73
2019-05-17T16:01:19.555Z,5.73
2019-05-17T16:03:51.501Z,6.23
2019-05-17T16:06:23.045Z,4.53
2019-05-17T16:08:53.377Z,5.30
2019-05-17T16:11:23.941Z,4.07
2019-05-17T16:13:54.499Z,6.67
2019-05-17T16:16:24.808Z,5.37
2019-05-17T16:18:55.190Z,4.20
2019-05-17T16:21:25.661Z,5.00
2019-05-17T16:23:56.433Z,5.77
2019-05-17T16:26:27.068Z,5.50
2019-05-17T16:28:57.392Z,5.53
2019-05-17T16:31:31.001Z,5.83
2019-05-17T16:34:02.769Z,5.40
2019-05-17T16:36:38.309Z,6.30
2019-05-17T16:39:12.007Z,5.60
2019-05-17T16:41:43.593Z,5.97
2019-05-17T16:44:14.812Z,5.53
2019-05-17T16:46:45.206Z,5.97
2019-05-17T16:49:15.661Z,6.73
2019-05-17T16:51:45.973Z,5.80
2019-05-17T16:54:16.406Z,5.40
2019-05-17T16:56:46.813Z,6.07
2019-05-17T16:59:17.288Z,5.70
2019-05-17T17:01:47.787Z,6.50
2019-05-17T17:04:18.950Z,5.70
2019-05-17T17:06:53.610Z,6.60
2019-05-17T17:09:39.653Z,6.27
2019-05-17T17:12:27.504Z,6.23
2019-05-17T17:15:02.757Z,6.27
2019-05-17T17:17:43.677Z,5.30
2019-05-17T17:20:16.570Z,5.30
2019-05-17T17:22:50.160Z,4.83
2019-05-17T17:25:24.375Z,5.10
2019-05-17T17:28:10.740Z,6.53
2019-05-17T17:30:46.321Z,5.33
2019-05-17T17:33:21.043Z,5.70
2019-05-17T17:35:54.822Z,6.43
2019-05-17T17:38:29.483Z,5.80
2019-05-17T17:41:01.384Z,5.27
2019-05-17T17:43:39.142Z,7.23
2019-05-17T17:46:11.511Z,6.87
2019-05-17T17:48:50.711Z,6.17
2019-05-17T17:51:24.924Z,6.10
2019-05-17T17:53:59.826Z,6.20
2019-05-17T17:56:32.690Z,6.37
2019-05-17T17:59:13.866Z,6.77
2019-05-17T18:01:46.320Z,9.23
2019-05-17T18:04:20.328Z,12.17
2019-05-17T18:06:53.815Z,9.50
2019-05-17T18:09:30.789Z,8.63
2019-05-17T18:12:03.304Z,7.53
2019-05-17T18:14:37.862Z,8.17
2019-05-17T18:17:15.253Z,10.37
2019-05-17T18:19:51.600Z,11.60
2019-05-17T18:22:25.477Z,11.27
2019-05-17T18:24:57.567Z,10.60
2019-05-17T18:27:30.028Z,11.83
2019-05-17T18:30:01.732Z,8.53
2019-05-17T18:32:33.435Z,8.93
2019-05-17T18:35:05.657Z,8.23
2019-05-17T18:37:37.650Z,7.47
2019-05-17T18:40:10.219Z,8.33
2019-05-17T18:42:42.119Z,9.30
2019-05-17T18:45:15.511Z,10.13
2019-05-17T18:47:50.510Z,8.40
2019-05-17T18:50:24.375Z,8.87
2019-05-17T18:52:57.860Z,8.03
2019-05-17T18:55:30.017Z,11.00
2019-05-17T18:58:01.700Z,8.27
2019-05-17T19:00:34.122Z,8.27
2019-05-17T19:03:07.190Z,9.47
2019-05-17T19:05:39.684Z,8.00
2019-05-17T19:08:12.110Z,7.47
2019-05-17T19:10:46.792Z,7.93
2019-05-17T19:13:20.343Z,10.40
2019-05-17T19:15:52.102Z,9.37
2019-05-17T19:18:27.626Z,8.17
2019-05-17T19:21:01.114Z,8.33
2019-05-17T19:23:34.462Z,9.17
2019-05-17T19:26:10.204Z,9.03
2019-05-17T19:28:42.326Z,9.00
2019-05-17T19:31:14.133Z,8.57
2019-05-17T19:33:46.522Z,9.33
2019-05-17T19:36:21.147Z,7.93
2019-05-17T19:38:59.003Z,9.83
2019-05-17T19:41:32.135Z,9.03
2019-05-17T19:44:06.221Z,10.57
2019-05-17T19:46:38.339Z,11.90
2019-05-17T19:49:11.263Z,12.30
2019-05-17T19:51:46.966Z,11.97
2019-05-17T19:54:21.477Z,10.27
2019-05-17T19:56:54.484Z,11.13
2019-05-17T19:59:26.203Z,12.83
2019-05-17T20:01:59.804Z,10.50
2019-05-17T20:04:31.714Z,10.40
2019-05-17T20:07:05.182Z,9.33
2019-05-17T20:09:38.267Z,11.37
2019-05-17T20:12:10.459Z,10.80
2019-05-17T20:14:43.552Z,11.87
2019-05-17T20:17:15.522Z,10.30
2019-05-17T20:19:47.415Z,11.90
2019-05-17T20:22:19.317Z,11.47
2019-05-17T20:24:52.154Z,14.33
2019-05-17T20:27:24.779Z,12.13
2019-05-17T20:29:57.887Z,12.23
2019-05-17T20:32:30.639Z,12.43
2019-05-17T20:35:02.444Z,11.83
2019-05-17T20:37:35.117Z,12.10
2019-05-17T20:40:08.177Z,11.37
2019-05-17T20:42:42.879Z,12.23
2019-05-17T20:45:15.606Z,11.47
2019-05-17T20:47:49.047Z,11.77
2019-05-17T20:50:20.799Z,11.37
2019-05-17T20:52:54.081Z,14.70
2019-05-17T20:55:27.302Z,13.10
2019-05-17T20:58:00.658Z,12.43
2019-05-17T21:00:32.552Z,12.90
2019-05-17T21:03:04.362Z,13.17
2019-05-17T21:05:36.003Z,12.17
2019-05-17T21:08:07.781Z,14.83
2019-05-17T21:10:40.748Z,12.20
2019-05-17T21:13:14.008Z,12.33
2019-05-17T21:15:48.088Z,12.67
2019-05-17T21:18:20.677Z,14.13
2019-05-17T21:20:52.347Z,17.33
2019-05-17T21:23:24.078Z,14.27
2019-05-17T21:25:59.376Z,15.27
2019-05-17T21:28:33.514Z,18.13
2019-05-17T21:31:08.160Z,14.77
2019-05-17T21:33:40.163Z,14.17
2019-05-17T21:36:11.711Z,16.63
2019-05-17T21:38:44.919Z,14.53
2019-05-17T21:41:16.866Z,16.63
2019-05-17T21:43:48.693Z,14.77
2019-05-17T21:46:20.806Z,13.30
2019-05-17T21:48:54.276Z,15.40
2019-05-17T21:51:25.995Z,17.20
2019-05-17T21:53:57.483Z,15.27
2019-05-17T21:56:30.088Z,16.37
2019-05-17T21:59:06.540Z,15.97
2019-05-17T22:01:38.725Z,14.37
2019-05-17T22:04:13.017Z,13.57
2019-05-17T22:06:45.244Z,13.70
2019-05-17T22:09:16.793Z,12.17
2019-05-17T22:11:52.717Z,13.60
2019-05-17T22:14:24.413Z,13.67
2019-05-17T22:16:57.335Z,12.83
2019-05-17T22:19:29.439Z,12.67
2019-05-17T22:22:01.348Z,13.50
2019-05-17T22:24:33.652Z,14.90
2019-05-17T22:27:05.751Z,16.07
2019-05-17T22:29:41.289Z,12.17
2019-05-17T22:32:11.602Z,13.73
2019-05-17T22:34:41.986Z,12.90
2019-05-17T22:37:12.289Z,14.43
2019-05-17T22:39:42.606Z,16.07
2019-05-17T22:42:13.088Z,13.67
2019-05-17T22:44:43.441Z,14.90
2019-05-17T22:47:13.742Z,13.73
2019-05-17T22:49:44.073Z,14.27
2019-05-17T22:52:14.369Z,15.40
2019-05-17T22:54:44.701Z,13.07
2019-05-17T22:57:15.261Z,13.47
2019-05-17T22:59:45.499Z,13.33
2019-05-17T23:02:15.842Z,14.40
2019-05-17T23:04:46.157Z,15.83
2019-05-17T23:07:16.482Z,16.33
2019-05-17T23:09:46.902Z,13.73
2019-05-17T23:12:17.238Z,13.40
2019-05-17T23:14:47.564Z,12.93
2019-05-17T23:17:17.895Z,14.27
2019-05-17T23:19:48.349Z,13.83
2019-05-17T23:22:19.899Z,14.73
2019-05-17T23:24:50.156Z,13.53
2019-05-17T23:27:20.513Z,12.93
2019-05-17T23:29:50.904Z,14.63
2019-05-17T23:32:21.225Z,14.20
2019-05-17T23:34:51.553Z,15.43
2019-05-17T23:37:21.886Z,15.27
2019-05-17T23:39:52.213Z,15.17
2019-05-17T23:42:22.564Z,14.67
2019-05-17T23:44:53.004Z,15.00
2019-05-17T23:47:23.387Z,13.83
2019-05-17T23:49:53.693Z,16.20
2019-05-17T23:52:24.080Z,15.20
2019-05-17T23:54:54.570Z,14.43
2019-05-17T23:57:24.865Z,15.73
2019-05-17T23:59:55.271Z,17.57
